createdAt,value
2018-04-30T09:16:36.091Z,84320.00
2018-04-30T09:17:36.089Z,85472.00
2018-04-30T09:18:36.091Z,85664.00
2018-04-30T09:19:36.099Z,85152.00
2018-04-30T09:20:36.094Z,84416.00
2018-04-30T09:21:36.096Z,84256.00
2018-04-30T09:22:36.097Z,85248.00
2018-04-30T09:23:36.101Z,84864.00
2018-04-30T09:24:36.102Z,89120.00
2018-04-30T09:25:36.104Z,91360.00
2018-04-30T09:26:36.104Z,90720.00
2018-04-30T09:27:36.116Z,86240.00
2018-04-30T09:28:36.116Z,83552.00
2018-04-30T09:29:36.108Z,84160.00
2018-04-30T09:30:36.117Z,87296.00
2018-04-30T09:31:36.119Z,86112.00
2018-04-30T09:32:36.117Z,79968.00
2018-04-30T09:33:36.125Z,75808.00
2018-04-30T09:34:36.118Z,77408.00
2018-04-30T09:35:36.121Z,66656.00
2018-04-30T09:36:36.123Z,57600.00
2018-04-30T09:37:36.125Z,68480.00
2018-04-30T09:38:36.128Z,61568.00
2018-04-30T09:39:36.130Z,91360.00
2018-04-30T09:40:36.131Z,90880.00
2018-04-30T09:41:36.135Z,88960.00
2018-04-30T09:42:36.142Z,79936.00
2018-04-30T09:43:36.140Z,78752.00
2018-04-30T09:44:36.144Z,84864.00
2018-04-30T09:45:36.145Z,87360.00
2018-04-30T09:46:36.150Z,86464.00
2018-04-30T09:47:36.170Z,84736.00
2018-04-30T09:48:36.163Z,84800.00
2018-04-30T09:49:36.154Z,88864.00
2018-04-30T09:50:36.160Z,90656.00
2018-04-30T09:51:36.161Z,92064.00
2018-04-30T09:52:36.163Z,87296.00
2018-04-30T09:53:36.165Z,88032.00
2018-04-30T09:54:36.173Z,88896.00
2018-04-30T09:55:36.188Z,73184.00
2018-04-30T09:56:36.176Z,89952.00
2018-04-30T09:57:36.184Z,88960.00
2018-04-30T09:58:36.177Z,87328.00
2018-04-30T09:59:36.192Z,87936.00
2018-04-30T10:00:36.189Z,92032.00
2018-04-30T10:01:36.189Z,92832.00
2018-04-30T10:02:36.190Z,93152.00
2018-04-30T10:03:36.191Z,94400.00
2018-04-30T10:04:36.199Z,93696.00
2018-04-30T10:05:36.196Z,92416.00
2018-04-30T10:06:36.199Z,93696.00
2018-04-30T10:07:36.204Z,97376.00
2018-04-30T10:08:36.206Z,98912.00
2018-04-30T10:09:36.211Z,97920.00
2018-04-30T10:10:36.212Z,96640.00
2018-04-30T10:11:36.214Z,41568.00
2018-04-30T10:12:36.220Z,93920.00
2018-04-30T10:13:36.219Z,93376.00
2018-04-30T10:14:36.232Z,95904.00
2018-04-30T10:15:36.225Z,95328.00
2018-04-30T10:16:36.227Z,42592.00
2018-04-30T10:17:36.235Z,42464.00
2018-04-30T10:18:36.232Z,23328.00
2018-04-30T10:19:36.238Z,94208.00
2018-04-30T10:20:36.237Z,68224.00
2018-04-30T10:21:36.239Z,78368.00
2018-04-30T10:22:36.241Z,79904.00
2018-04-30T10:23:36.409Z,80640.00
2018-04-30T10:24:36.245Z,67744.00
2018-04-30T10:25:36.248Z,34720.00
2018-04-30T10:26:36.252Z,90528.00
2018-04-30T10:27:36.253Z,82432.00
2018-04-30T10:28:36.340Z,24704.00
2018-04-30T10:29:36.259Z,34720.00
2018-04-30T10:30:36.260Z,37984.00
2018-04-30T10:31:36.289Z,18048.00
2018-04-30T10:32:36.268Z,14920.00
2018-04-30T10:33:36.264Z,10632.00
2018-04-30T10:34:36.266Z,9964.00
2018-04-30T10:35:36.272Z,14560.00
2018-04-30T10:36:36.273Z,13200.00
2018-04-30T10:37:36.273Z,13652.00
2018-04-30T10:38:36.275Z,15608.00
2018-04-30T10:39:36.274Z,14580.00
2018-04-30T10:40:36.295Z,15920.00
2018-04-30T10:41:36.271Z,19584.00
2018-04-30T10:42:36.278Z,16520.00
2018-04-30T10:43:36.272Z,15708.00
2018-04-30T10:44:36.281Z,14688.00
2018-04-30T10:45:36.272Z,22880.00
2018-04-30T10:46:36.272Z,29632.00
2018-04-30T10:47:36.274Z,33344.00
2018-04-30T10:48:36.272Z,32064.00
2018-04-30T10:49:36.269Z,46432.00
2018-04-30T10:50:36.272Z,87072.00
2018-04-30T10:51:36.303Z,73536.00
2018-04-30T10:52:36.270Z,43808.00
2018-04-30T10:53:36.358Z,32576.00
2018-04-30T10:54:36.266Z,36320.00
2018-04-30T10:55:36.268Z,65248.00
2018-04-30T10:56:36.267Z,29376.00
2018-04-30T10:57:36.264Z,23008.00
2018-04-30T10:58:36.270Z,20512.00
2018-04-30T10:59:36.262Z,21024.00
2018-04-30T11:00:36.262Z,20000.00
2018-04-30T11:01:36.260Z,20704.00
2018-04-30T11:02:36.293Z,20640.00
2018-04-30T11:03:36.267Z,18944.00
2018-04-30T11:04:36.261Z,39072.00
2018-04-30T11:05:36.260Z,56032.00
2018-04-30T11:06:36.254Z,30240.00
2018-04-30T11:07:36.254Z,27840.00
2018-04-30T11:08:36.254Z,21152.00
2018-04-30T11:09:36.254Z,24992.00
2018-04-30T11:10:36.252Z,34208.00
2018-04-30T11:11:36.245Z,61536.00
2018-04-30T11:12:36.252Z,16416.00
2018-04-30T11:13:36.258Z,9560.00
2018-04-30T11:14:36.240Z,10144.00
2018-04-30T11:15:36.242Z,9756.00
2018-04-30T11:16:36.235Z,9188.00
2018-04-30T11:17:36.234Z,8132.00
2018-04-30T11:18:36.231Z,7384.00
2018-04-30T11:19:36.235Z,6644.00
2018-04-30T11:20:36.226Z,6892.00
2018-04-30T11:21:36.222Z,7768.00
2018-04-30T11:22:36.219Z,9028.00
2018-04-30T11:23:36.218Z,10012.00
2018-04-30T11:24:36.213Z,9340.00
2018-04-30T11:25:36.208Z,8628.00
2018-04-30T11:26:36.207Z,8480.00
2018-04-30T11:27:36.279Z,9248.00
2018-04-30T11:28:36.197Z,10584.00
2018-04-30T11:29:36.194Z,11700.00
2018-04-30T11:30:36.192Z,13076.00
2018-04-30T11:31:36.184Z,15740.00
2018-04-30T11:32:36.183Z,15344.00
2018-04-30T11:33:36.181Z,14932.00
2018-04-30T11:34:36.173Z,14836.00
2018-04-30T11:35:36.170Z,15020.00
2018-04-30T11:36:36.165Z,13660.00
2018-04-30T11:37:36.159Z,12688.00
2018-04-30T11:38:36.154Z,15032.00
2018-04-30T11:39:36.154Z,17344.00
2018-04-30T11:40:36.145Z,15860.00
2018-04-30T11:41:36.139Z,18016.00
2018-04-30T11:42:36.135Z,22880.00
2018-04-30T11:43:36.138Z,22464.00
2018-04-30T11:44:36.125Z,23456.00
2018-04-30T11:45:36.123Z,24160.00
2018-04-30T11:46:36.118Z,21952.00
2018-04-30T11:47:36.112Z,19808.00
2018-04-30T11:48:36.105Z,16152.00
2018-04-30T11:49:36.099Z,12380.00
2018-04-30T11:50:36.092Z,10376.00
2018-04-30T11:51:36.087Z,9920.00
2018-04-30T11:52:36.094Z,10616.00
2018-04-30T11:53:36.078Z,9860.00
2018-04-30T11:54:36.074Z,7612.00
2018-04-30T11:55:36.072Z,6708.00
2018-04-30T11:56:36.063Z,7028.00
2018-04-30T11:57:36.055Z,7776.00
2018-04-30T11:58:36.134Z,7252.00
2018-04-30T11:59:36.043Z,6392.00
2018-04-30T12:00:36.038Z,6488.00
2018-04-30T12:01:36.033Z,9064.00
2018-04-30T12:02:36.034Z,11260.00
2018-04-30T12:03:36.022Z,13904.00
2018-04-30T12:04:36.014Z,16060.00
2018-04-30T12:05:36.009Z,14384.00
2018-04-30T12:06:36.003Z,15684.00
2018-04-30T12:07:35.995Z,20000.00
2018-04-30T12:08:35.991Z,15980.00
2018-04-30T12:09:35.983Z,15048.00
2018-04-30T12:10:35.979Z,15124.00
2018-04-30T12:11:35.975Z,14748.00
2018-04-30T12:12:35.963Z,53952.00
2018-04-30T12:13:35.960Z,11908.00
2018-04-30T12:14:35.955Z,10732.00
2018-04-30T12:15:35.947Z,10012.00
2018-04-30T12:16:36.012Z,8320.00
2018-04-30T12:17:35.934Z,7084.00
2018-04-30T12:18:35.928Z,6744.00
2018-04-30T12:19:35.924Z,7348.00
2018-04-30T12:20:35.917Z,7108.00
2018-04-30T12:21:35.909Z,6620.00
2018-04-30T12:22:35.902Z,6920.00
2018-04-30T12:23:35.897Z,7484.00
2018-04-30T12:24:35.891Z,8484.00
2018-04-30T12:25:35.885Z,10860.00
2018-04-30T12:26:35.876Z,12308.00
2018-04-30T12:27:35.870Z,13148.00
2018-04-30T12:28:35.870Z,13652.00
2018-04-30T12:29:35.857Z,12584.00
2018-04-30T12:30:35.847Z,10676.00
2018-04-30T12:31:35.847Z,8464.00
2018-04-30T12:32:35.837Z,6980.00
2018-04-30T12:33:35.838Z,6216.00
2018-04-30T12:34:35.825Z,6004.00
2018-04-30T12:35:35.814Z,6384.00
2018-04-30T12:36:35.807Z,6604.00
2018-04-30T12:37:35.808Z,6836.00
2018-04-30T12:38:35.792Z,7308.00
2018-04-30T12:39:35.785Z,8012.00
2018-04-30T12:40:35.777Z,9204.00
2018-04-30T12:41:35.769Z,10748.00
2018-04-30T12:42:35.763Z,17152.00
2018-04-30T12:43:35.763Z,20832.00
2018-04-30T12:44:35.747Z,19392.00
2018-04-30T12:45:35.737Z,21600.00
2018-04-30T12:46:35.729Z,21280.00
2018-04-30T12:47:35.723Z,29408.00
2018-04-30T12:48:35.716Z,88000.00
2018-04-30T12:49:35.721Z,96928.00
2018-04-30T12:50:35.698Z,75904.00
2018-04-30T12:51:35.701Z,34048.00
2018-04-30T12:52:35.684Z,20448.00
2018-04-30T12:53:35.678Z,17792.00
2018-04-30T12:54:35.671Z,20672.00
2018-04-30T12:55:35.663Z,25600.00
2018-04-30T12:56:35.673Z,24416.00
2018-04-30T12:57:35.648Z,11268.00
2018-04-30T12:58:35.645Z,24032.00
2018-04-30T12:59:35.636Z,23616.00
2018-04-30T13:00:35.632Z,20672.00
2018-04-30T13:01:35.631Z,17632.00
2018-04-30T13:02:35.685Z,18592.00
2018-04-30T13:03:35.612Z,18752.00
2018-04-30T13:04:35.610Z,16176.00
2018-04-30T13:05:35.601Z,17280.00
2018-04-30T13:06:35.593Z,20640.00
2018-04-30T13:07:35.584Z,22272.00
2018-04-30T13:08:35.581Z,25120.00
2018-04-30T13:09:35.575Z,25760.00
2018-04-30T13:10:35.572Z,27360.00
2018-04-30T13:11:35.565Z,25888.00
2018-04-30T13:12:35.558Z,25856.00
2018-04-30T13:13:35.551Z,22720.00
2018-04-30T13:14:35.548Z,22240.00
2018-04-30T13:15:35.541Z,19840.00
2018-04-30T13:16:35.533Z,15488.00
2018-04-30T13:17:35.530Z,12672.00
2018-04-30T13:18:35.527Z,12252.00
2018-04-30T13:19:35.523Z,11436.00
2018-04-30T13:20:35.514Z,9912.00
2018-04-30T13:21:35.509Z,8744.00
2018-04-30T13:22:35.501Z,8944.00
2018-04-30T13:23:35.493Z,62432.00
2018-04-30T13:24:35.488Z,24736.00
2018-04-30T13:25:35.480Z,11200.00
2018-04-30T13:26:35.479Z,10224.00
2018-04-30T13:27:35.469Z,9800.00
2018-04-30T13:28:35.514Z,9160.00
2018-04-30T13:29:35.459Z,3568.00
2018-04-30T13:30:35.454Z,6364.00
2018-04-30T13:31:35.451Z,4328.00
2018-04-30T13:32:35.444Z,4676.00
2018-04-30T13:33:35.438Z,6044.00
2018-04-30T13:34:35.429Z,9656.00
2018-04-30T13:35:35.418Z,10232.00
2018-04-30T13:36:35.414Z,5164.00
2018-04-30T13:37:35.404Z,272.00
2018-04-30T13:38:35.398Z,10392.00
2018-04-30T13:39:35.387Z,9920.00
2018-04-30T13:40:35.383Z,9484.00
2018-04-30T13:41:35.376Z,11664.00
2018-04-30T13:42:35.364Z,9044.00
2018-04-30T13:43:35.407Z,10588.00
2018-04-30T13:44:35.347Z,8732.00
2018-04-30T13:45:35.339Z,8728.00
2018-04-30T13:46:35.329Z,8636.00
2018-04-30T13:47:35.323Z,7956.00
2018-04-30T13:48:35.317Z,9044.00
2018-04-30T13:49:35.308Z,9348.00
2018-04-30T13:50:35.303Z,8432.00
2018-04-30T13:51:35.286Z,7644.00
2018-04-30T13:52:35.284Z,5472.00
2018-04-30T13:53:35.267Z,4616.00
2018-04-30T13:54:35.325Z,4376.00
2018-04-30T13:55:35.250Z,4712.00
2018-04-30T13:56:35.236Z,6344.00
2018-04-30T13:57:35.230Z,7192.00
2018-04-30T13:58:35.234Z,6464.00
2018-04-30T13:59:35.213Z,5280.00
2018-04-30T14:00:35.201Z,5152.00
2018-04-30T14:01:35.188Z,5224.00
2018-04-30T14:02:35.178Z,3964.00
2018-04-30T14:03:35.169Z,3888.00
2018-04-30T14:04:35.159Z,3580.00
2018-04-30T14:05:35.151Z,4240.00
2018-04-30T14:06:35.142Z,4164.00
2018-04-30T14:07:35.124Z,5356.00
2018-04-30T14:08:35.115Z,4768.00
2018-04-30T14:09:35.108Z,3952.00
2018-04-30T14:10:35.093Z,3740.00
2018-04-30T14:11:35.092Z,4108.00
2018-04-30T14:12:35.074Z,3808.00
2018-04-30T14:13:35.067Z,2696.00
2018-04-30T14:14:35.056Z,3508.00
2018-04-30T14:15:35.048Z,4220.00
2018-04-30T14:16:35.038Z,5136.00
2018-04-30T14:17:35.033Z,3728.00
2018-04-30T14:18:35.014Z,5188.00
2018-04-30T14:19:35.004Z,6784.00
2018-04-30T14:20:34.998Z,6188.00
2018-04-30T14:21:35.014Z,7600.00
2018-04-30T14:22:34.977Z,6088.00
2018-04-30T14:23:34.968Z,6332.00
2018-04-30T14:24:34.956Z,6056.00
2018-04-30T14:25:34.941Z,5728.00
2018-04-30T14:26:34.929Z,6188.00
2018-04-30T14:27:34.923Z,9600.00
2018-04-30T14:28:34.919Z,11032.00
2018-04-30T14:29:34.896Z,12800.00
2018-04-30T14:30:34.887Z,9096.00
2018-04-30T14:31:34.898Z,5836.00
2018-04-30T14:32:34.869Z,6172.00
2018-04-30T14:33:34.855Z,8668.00
2018-04-30T14:34:34.845Z,9996.00
2018-04-30T14:35:34.833Z,6732.00
2018-04-30T14:36:34.824Z,10236.00
2018-04-30T14:37:34.823Z,12464.00
2018-04-30T14:38:34.800Z,12112.00
2018-04-30T14:39:34.789Z,12436.00
2018-04-30T14:40:34.781Z,12736.00
2018-04-30T14:41:34.768Z,12072.00
2018-04-30T14:42:34.759Z,13288.00
2018-04-30T14:43:34.752Z,9544.00
2018-04-30T14:44:34.746Z,7124.00
2018-04-30T14:45:34.725Z,9180.00
2018-04-30T14:46:34.716Z,8540.00
2018-04-30T14:47:34.704Z,7144.00
2018-04-30T14:48:34.695Z,6744.00
2018-04-30T14:49:34.686Z,4156.00
2018-04-30T14:50:34.678Z,6252.00
2018-04-30T14:51:34.663Z,5820.00
2018-04-30T14:52:34.656Z,5788.00
2018-04-30T14:53:34.640Z,5760.00
2018-04-30T14:54:34.633Z,5900.00
2018-04-30T14:55:34.621Z,6400.00
2018-04-30T14:56:34.608Z,5564.00
2018-04-30T14:57:34.599Z,5724.00
2018-04-30T14:58:34.591Z,5584.00
2018-04-30T14:59:34.578Z,5240.00
2018-04-30T15:00:34.567Z,3004.00
2018-04-30T15:01:34.555Z,2696.00
2018-04-30T15:02:34.549Z,3196.00
2018-04-30T15:03:34.535Z,5124.00
2018-04-30T15:04:34.523Z,5752.00
2018-04-30T15:05:34.521Z,5688.00
2018-04-30T15:06:34.505Z,5436.00
2018-04-30T15:07:34.492Z,5048.00
2018-04-30T15:08:34.482Z,5032.00
2018-04-30T15:09:34.477Z,5012.00
2018-04-30T15:10:34.460Z,4936.00
2018-04-30T15:11:34.452Z,4840.00
2018-04-30T15:12:34.440Z,4720.00
2018-04-30T15:13:34.431Z,4624.00
2018-04-30T15:14:34.416Z,4548.00
2018-04-30T15:15:34.419Z,4484.00
2018-04-30T15:16:34.401Z,4416.00
2018-04-30T15:17:34.387Z,4380.00
2018-04-30T15:18:34.375Z,4340.00
2018-04-30T15:19:34.451Z,4284.00
2018-04-30T15:20:34.358Z,4240.00
2018-04-30T15:21:34.343Z,4208.00
2018-04-30T15:22:34.358Z,4188.00
2018-04-30T15:23:34.323Z,4164.00
2018-04-30T15:24:34.315Z,4152.00
2018-04-30T15:25:34.299Z,4132.00
2018-04-30T15:26:34.297Z,4112.00
2018-04-30T15:27:34.280Z,4112.00
2018-04-30T15:28:34.269Z,4084.00
2018-04-30T15:29:34.263Z,4060.00
2018-04-30T15:30:34.255Z,4016.00
2018-04-30T15:31:34.238Z,3932.00
2018-04-30T15:32:34.228Z,3924.00
2018-04-30T15:33:34.217Z,3828.00
2018-04-30T15:34:34.206Z,4528.00
2018-04-30T15:35:34.207Z,4272.00
2018-04-30T15:36:34.188Z,3856.00
2018-04-30T15:37:34.171Z,3836.00
2018-04-30T15:38:34.164Z,3776.00
2018-04-30T15:39:34.152Z,2740.00
2018-04-30T15:40:34.139Z,3724.00
2018-04-30T15:41:34.133Z,3672.00
2018-04-30T15:42:34.119Z,3668.00
2018-04-30T15:43:34.111Z,3652.00
2018-04-30T15:44:34.096Z,3776.00
2018-04-30T15:45:34.092Z,3664.00
2018-04-30T15:46:34.088Z,2772.00
2018-04-30T15:47:34.079Z,2776.00
2018-04-30T15:48:34.053Z,3452.00
2018-04-30T15:49:34.043Z,3452.00
2018-04-30T15:50:34.034Z,3468.00
2018-04-30T15:51:34.023Z,3568.00
2018-04-30T15:52:34.017Z,3464.00
2018-04-30T15:53:33.999Z,3364.00
2018-04-30T15:54:34.027Z,3244.00
2018-04-30T15:55:33.977Z,3192.00
2018-04-30T15:56:33.971Z,3164.00
2018-04-30T15:57:33.956Z,3160.00
2018-04-30T15:58:33.953Z,3064.00
2018-04-30T15:59:33.937Z,3128.00
2018-04-30T16:00:33.923Z,3020.00
2018-04-30T16:01:33.912Z,2016.00
2018-04-30T16:02:33.901Z,2020.00
2018-04-30T16:03:33.890Z,2060.00
2018-04-30T16:04:33.956Z,1960.00
2018-04-30T16:05:33.876Z,2092.00
2018-04-30T16:06:33.858Z,2848.00
2018-04-30T16:07:33.847Z,2864.00
2018-04-30T16:08:33.835Z,2860.00
2018-04-30T16:09:33.823Z,2912.00
2018-04-30T16:10:33.817Z,2548.00
2018-04-30T16:11:33.801Z,2320.00
2018-04-30T16:12:33.793Z,2936.00
2018-04-30T16:13:33.781Z,2900.00
2018-04-30T16:14:33.767Z,3812.00
2018-04-30T16:15:33.757Z,3252.00
2018-04-30T16:16:33.747Z,2372.00
2018-04-30T16:17:33.734Z,1944.00
2018-04-30T16:18:33.724Z,1844.00
2018-04-30T16:19:33.710Z,1860.00
2018-04-30T16:20:33.699Z,2348.00
2018-04-30T16:21:33.692Z,2692.00
2018-04-30T16:22:33.679Z,2636.00
2018-04-30T16:23:33.666Z,2596.00
2018-04-30T16:24:33.655Z,2544.00
2018-04-30T16:25:33.647Z,2516.00
2018-04-30T16:26:33.631Z,2484.00
2018-04-30T16:27:33.621Z,2416.00
2018-04-30T16:28:33.609Z,2308.00
2018-04-30T16:29:33.598Z,2248.00
2018-04-30T16:30:33.591Z,2124.00
2018-04-30T16:31:33.576Z,2168.00
2018-04-30T16:32:33.564Z,2124.00
2018-04-30T16:33:33.555Z,2040.00
2018-04-30T16:34:33.549Z,2104.00
2018-04-30T16:35:33.532Z,2080.00
2018-04-30T16:36:33.517Z,2032.00
2018-04-30T16:37:33.508Z,2048.00
2018-04-30T16:38:33.504Z,2188.00
2018-04-30T16:39:33.506Z,2304.00
2018-04-30T16:40:33.477Z,2260.00
2018-04-30T16:41:33.460Z,2176.00
2018-04-30T16:42:33.451Z,1868.00
2018-04-30T16:43:33.442Z,1824.00
2018-04-30T16:44:33.428Z,1792.00
2018-04-30T16:45:33.412Z,1776.00
2018-04-30T16:46:33.403Z,1760.00
2018-04-30T16:47:33.392Z,1740.00
2018-04-30T16:48:33.381Z,1732.00
2018-04-30T16:49:33.369Z,1728.00
2018-04-30T16:50:33.358Z,1720.00
2018-04-30T16:51:33.346Z,1692.00
2018-04-30T16:52:33.334Z,1656.00
2018-04-30T16:53:33.326Z,1656.00
2018-04-30T16:54:33.314Z,1624.00
2018-04-30T16:55:33.303Z,1600.00
2018-04-30T16:56:33.290Z,1544.00
2018-04-30T16:57:33.276Z,1524.00
2018-04-30T16:58:33.334Z,1476.00
2018-04-30T16:59:33.269Z,1508.00
2018-04-30T17:00:33.241Z,1584.00
2018-04-30T17:01:33.227Z,1652.00
2018-04-30T17:02:33.219Z,1656.00
2018-04-30T17:03:33.205Z,1656.00
2018-04-30T17:04:33.196Z,2008.00
2018-04-30T17:05:33.187Z,2052.00
2018-04-30T17:06:33.171Z,1952.00
2018-04-30T17:07:33.162Z,1880.00
2018-04-30T17:08:33.147Z,1440.00
2018-04-30T17:09:33.133Z,1372.00
2018-04-30T17:10:33.196Z,1304.00
2018-04-30T17:11:33.118Z,1344.00
2018-04-30T17:12:33.101Z,1644.00
2018-04-30T17:13:33.088Z,1588.00
2018-04-30T17:14:33.078Z,1524.00
2018-04-30T17:15:33.068Z,1408.00
2018-04-30T17:16:33.052Z,1304.00
2018-04-30T17:17:33.051Z,1272.00
2018-04-30T17:18:33.033Z,1252.00
2018-04-30T17:19:33.021Z,1240.00
2018-04-30T17:20:33.007Z,1236.00
2018-04-30T17:21:32.995Z,1220.00
2018-04-30T17:22:32.985Z,1204.00
2018-04-30T17:23:32.972Z,1184.00
2018-04-30T17:24:32.957Z,1172.00
2018-04-30T17:25:32.947Z,1156.00
2018-04-30T17:26:32.934Z,1140.00
2018-04-30T17:27:32.922Z,1124.00
2018-04-30T17:28:32.914Z,1108.00
2018-04-30T17:29:32.905Z,1092.00
2018-04-30T17:30:32.990Z,1048.00
2018-04-30T17:31:32.877Z,1064.00
2018-04-30T17:32:32.863Z,1060.00
2018-04-30T17:33:32.851Z,1056.00
2018-04-30T17:34:32.841Z,1048.00
2018-04-30T17:35:32.827Z,1032.00
2018-04-30T17:36:32.840Z,1020.00
2018-04-30T17:37:32.800Z,1008.00
2018-04-30T17:38:32.790Z,992.00
2018-04-30T17:39:32.782Z,976.00
2018-04-30T17:40:32.768Z,956.00
2018-04-30T17:41:32.755Z,936.00
2018-04-30T17:42:32.740Z,920.00
2018-04-30T17:43:32.733Z,904.00
2018-04-30T17:44:32.716Z,888.00
2018-04-30T17:45:32.704Z,872.00
2018-04-30T17:46:32.695Z,856.00
2018-04-30T17:47:32.678Z,840.00
2018-04-30T17:48:32.666Z,824.00
2018-04-30T17:49:32.663Z,808.00
2018-04-30T17:50:32.648Z,792.00
2018-04-30T17:51:32.629Z,772.00
2018-04-30T17:52:32.618Z,756.00
2018-04-30T17:53:32.605Z,736.00
2018-04-30T17:54:32.593Z,720.00
2018-04-30T17:55:32.587Z,704.00
2018-04-30T17:56:32.570Z,688.00
2018-04-30T17:57:32.557Z,668.00
2018-04-30T17:58:32.543Z,648.00
2018-04-30T17:59:32.539Z,632.00
2018-04-30T18:00:32.522Z,612.00
2018-04-30T18:01:32.508Z,596.00
2018-04-30T18:02:32.496Z,576.00
2018-04-30T18:03:32.483Z,560.00
2018-04-30T18:04:32.471Z,540.00
2018-04-30T18:05:32.459Z,520.00
2018-04-30T18:06:32.450Z,500.00
2018-04-30T18:07:32.432Z,484.00
2018-04-30T18:08:32.428Z,464.00
2018-04-30T18:09:32.409Z,444.00
2018-04-30T18:10:32.397Z,428.00
2018-04-30T18:11:32.393Z,408.00
2018-04-30T18:12:32.374Z,388.00
2018-04-30T18:13:32.361Z,372.00
2018-04-30T18:14:32.348Z,352.00
2018-04-30T18:15:32.337Z,336.00
2018-04-30T18:16:32.324Z,320.00
2018-04-30T18:17:32.310Z,304.00
2018-04-30T18:18:32.296Z,284.00
2018-04-30T18:19:32.285Z,272.00
2018-04-30T18:20:32.272Z,252.00
2018-04-30T18:21:32.259Z,236.00
2018-04-30T18:22:32.248Z,224.00
2018-04-30T18:23:32.235Z,208.00
2018-04-30T18:24:32.222Z,196.00
2018-04-30T18:25:32.208Z,180.00
2018-04-30T18:26:32.250Z,168.00
2018-04-30T18:27:32.185Z,156.00
2018-04-30T18:28:32.177Z,144.00
2018-04-30T18:29:32.167Z,128.00
2018-04-30T18:30:32.147Z,120.00
2018-04-30T18:31:32.132Z,108.00
2018-04-30T18:32:32.120Z,96.00
2018-04-30T18:33:32.107Z,92.00
2018-04-30T18:34:32.101Z,84.00
2018-04-30T18:35:32.088Z,72.00
2018-04-30T18:36:32.082Z,68.00
2018-04-30T18:37:32.059Z,60.00
2018-04-30T18:38:32.045Z,52.00
2018-04-30T18:39:32.038Z,48.00
2018-04-30T18:40:32.023Z,40.00
2018-04-30T18:41:32.013Z,40.00
2018-04-30T18:42:31.995Z,36.00
2018-04-30T18:43:31.982Z,32.00
2018-04-30T18:44:31.979Z,28.00
2018-04-30T18:45:31.955Z,20.00
2018-04-30T18:46:31.943Z,20.00
2018-04-30T18:47:31.929Z,16.00
2018-04-30T18:48:31.921Z,16.00
2018-04-30T18:49:31.905Z,16.00
2018-04-30T18:50:31.893Z,12.00
2018-04-30T18:51:31.880Z,8.00
2018-04-30T18:52:31.867Z,8.00
2018-04-30T18:53:31.855Z,8.00
2018-04-30T18:54:31.840Z,4.00
2018-04-30T18:55:31.840Z,4.00
2018-04-30T18:56:31.815Z,4.00
2018-04-30T18:57:31.801Z,4.00
2018-04-30T18:58:31.788Z,4.00
2018-04-30T18:59:31.775Z,0.00
2018-04-30T19:00:31.761Z,4.00
2018-04-30T19:01:31.768Z,0.00
2018-04-30T19:02:31.781Z,0.00
2018-04-30T19:03:31.723Z,0.00
2018-04-30T19:04:31.716Z,4.00
2018-04-30T19:05:31.698Z,4.00
2018-04-30T19:06:31.685Z,4.00
2018-04-30T19:07:31.673Z,4.00
2018-04-30T19:08:31.653Z,0.00
2018-04-30T19:09:31.646Z,0.00
2018-04-30T19:10:31.635Z,0.00
2018-04-30T19:11:31.617Z,0.00
2018-04-30T19:12:31.602Z,0.00
2018-04-30T19:13:31.591Z,0.00
2018-04-30T19:14:31.597Z,0.00
2018-04-30T19:15:31.563Z,0.00
2018-04-30T19:16:31.548Z,0.00
2018-04-30T19:17:31.535Z,0.00
2018-04-30T19:18:31.528Z,0.00
2018-04-30T19:19:31.507Z,0.00
2018-04-30T19:20:31.500Z,0.00
2018-04-30T19:21:31.478Z,0.00
2018-04-30T19:22:31.474Z,0.00
2018-04-30T19:23:31.452Z,0.00
2018-04-30T19:24:31.439Z,0.00
2018-04-30T19:25:31.431Z,0.00
2018-04-30T19:26:31.415Z,4.00
2018-04-30T19:27:31.396Z,0.00
2018-04-30T19:28:31.382Z,0.00
2018-04-30T19:29:31.371Z,0.00
2018-04-30T19:30:31.356Z,0.00
2018-04-30T19:31:31.346Z,0.00
2018-04-30T19:32:31.328Z,0.00
2018-04-30T19:33:31.318Z,0.00
2018-04-30T19:34:31.306Z,0.00
2018-04-30T19:35:31.285Z,0.00
2018-04-30T19:36:31.275Z,0.00
2018-04-30T19:37:31.257Z,0.00
2018-04-30T19:38:31.243Z,0.00
2018-04-30T19:39:31.228Z,0.00
2018-04-30T19:40:31.220Z,0.00
2018-04-30T19:41:31.202Z,0.00
2018-04-30T19:42:31.191Z,0.00
2018-04-30T19:43:31.169Z,0.00
2018-04-30T19:44:31.158Z,0.00
2018-04-30T19:45:31.168Z,0.00
2018-04-30T19:46:31.128Z,0.00
2018-04-30T19:47:31.113Z,0.00
2018-04-30T19:48:31.106Z,0.00
2018-04-30T19:49:31.085Z,0.00
2018-04-30T19:50:31.071Z,0.00
2018-04-30T19:51:31.060Z,0.00
2018-04-30T19:52:31.107Z,0.00
2018-04-30T19:53:31.029Z,0.00
2018-04-30T19:54:31.017Z,0.00
2018-04-30T19:55:30.996Z,0.00
2018-04-30T19:56:30.982Z,0.00
2018-04-30T19:57:30.966Z,0.00
2018-04-30T19:58:30.951Z,0.00
2018-04-30T19:59:30.944Z,0.00
2018-04-30T20:00:30.924Z,0.00
2018-04-30T20:01:30.905Z,0.00
2018-04-30T20:02:30.892Z,0.00
2018-04-30T20:03:30.881Z,0.00
2018-04-30T20:04:30.864Z,0.00
2018-04-30T20:05:30.844Z,0.00
2018-04-30T20:06:30.832Z,0.00
2018-04-30T20:07:30.828Z,0.00
2018-04-30T20:08:30.807Z,0.00
2018-04-30T20:09:30.789Z,0.00
2018-04-30T20:10:30.772Z,0.00
2018-04-30T20:11:30.764Z,0.00
2018-04-30T20:12:30.743Z,0.00
2018-04-30T20:13:30.751Z,0.00
2018-04-30T20:14:30.762Z,0.00
2018-04-30T20:15:30.702Z,0.00
2018-04-30T20:16:30.685Z,0.00
2018-04-30T20:17:30.666Z,0.00
2018-04-30T20:18:30.662Z,0.00
2018-04-30T20:19:30.638Z,0.00
2018-04-30T20:20:30.705Z,0.00
2018-04-30T20:21:30.609Z,0.00
2018-04-30T20:22:30.590Z,0.00
2018-04-30T20:23:30.578Z,0.00
2018-04-30T20:24:30.564Z,0.00
2018-04-30T20:25:30.546Z,0.00
2018-04-30T20:26:30.532Z,0.00
2018-04-30T20:27:30.517Z,0.00
2018-04-30T20:28:30.501Z,0.00
2018-04-30T20:29:30.485Z,0.00
2018-04-30T20:30:30.471Z,0.00
2018-04-30T20:31:30.458Z,0.00
2018-04-30T20:32:30.439Z,0.00
2018-04-30T20:33:30.421Z,0.00
2018-04-30T20:34:30.404Z,0.00
2018-04-30T20:35:30.393Z,0.00
2018-04-30T20:36:30.377Z,0.00
2018-04-30T20:37:30.361Z,0.00
2018-04-30T20:38:30.350Z,0.00
2018-04-30T20:39:30.341Z,0.00
2018-04-30T20:40:30.313Z,0.00
2018-04-30T20:41:30.293Z,0.00
2018-04-30T20:42:30.279Z,0.00
2018-04-30T20:43:30.283Z,0.00
2018-04-30T20:44:30.343Z,0.00
2018-04-30T20:45:30.236Z,0.00
2018-04-30T20:46:30.214Z,0.00
2018-04-30T20:47:30.205Z,0.00
2018-04-30T20:48:30.186Z,0.00
2018-04-30T20:49:30.167Z,0.00
2018-04-30T20:50:30.239Z,0.00
2018-04-30T20:51:30.138Z,0.00
2018-04-30T20:52:30.120Z,0.00
2018-04-30T20:53:30.104Z,0.00
2018-04-30T20:54:30.089Z,0.00
2018-04-30T20:55:30.076Z,0.00
2018-04-30T20:56:30.062Z,0.00
2018-04-30T20:57:30.042Z,0.00
2018-04-30T20:58:30.027Z,0.00
2018-04-30T20:59:30.011Z,0.00
2018-04-30T21:00:29.995Z,0.00
2018-04-30T21:01:29.980Z,0.00
2018-04-30T21:02:29.969Z,0.00
2018-04-30T21:03:29.947Z,0.00
2018-04-30T21:04:29.929Z,0.00
2018-04-30T21:05:29.915Z,0.00
2018-04-30T21:06:29.910Z,0.00
2018-04-30T21:07:29.882Z,0.00
2018-04-30T21:08:29.868Z,0.00
2018-04-30T21:09:29.903Z,0.00
2018-04-30T21:10:29.836Z,0.00
2018-04-30T21:11:29.821Z,0.00
2018-04-30T21:12:29.805Z,0.00
2018-04-30T21:13:29.789Z,0.00
2018-04-30T21:14:29.779Z,0.00
2018-04-30T21:15:29.757Z,0.00
2018-04-30T21:16:29.740Z,0.00
2018-04-30T21:17:29.809Z,0.00
2018-04-30T21:18:29.707Z,0.00
2018-04-30T21:19:29.691Z,0.00
2018-04-30T21:20:29.677Z,0.00
2018-04-30T21:21:29.659Z,0.00
2018-04-30T21:22:29.643Z,0.00
2018-04-30T21:23:29.632Z,0.00
2018-04-30T21:24:29.696Z,0.00
2018-04-30T21:25:29.599Z,0.00
2018-04-30T21:26:29.583Z,0.00
2018-04-30T21:27:29.568Z,0.00
2018-04-30T21:28:29.549Z,0.00
2018-04-30T21:29:29.542Z,0.00
2018-04-30T21:30:29.514Z,0.00
2018-04-30T21:31:29.502Z,0.00
2018-04-30T21:32:29.485Z,0.00